createdAt,value
2017-07-03T00:00:16.824Z,16.52
2017-07-03T00:01:17.591Z,16.60
2017-07-03T00:02:16.837Z,16.70
2017-07-03T00:03:17.100Z,16.69
2017-07-03T00:04:17.363Z,16.71
2017-07-03T00:05:17.403Z,16.78
2017-07-03T00:06:21.847Z,16.82
2017-07-03T00:07:22.115Z,16.80
2017-07-03T00:08:17.284Z,16.75
2017-07-03T00:09:21.779Z,16.79
2017-07-03T00:10:22.069Z,16.83
2017-07-03T00:11:22.341Z,16.77
2017-07-03T00:12:17.431Z,16.81
2017-07-03T00:13:21.798Z,16.73
2017-07-03T00:14:16.936Z,16.72
2017-07-03T00:15:22.287Z,16.67
2017-07-03T00:16:12.357Z,16.68
2017-07-03T00:17:17.248Z,16.73
2017-07-03T00:18:17.053Z,16.75
2017-07-03T00:19:22.346Z,16.76
2017-07-03T00:20:22.615Z,16.76
2017-07-03T00:21:22.008Z,16.75
2017-07-03T00:22:22.276Z,16.74
2017-07-03T00:23:22.598Z,16.86
2017-07-03T00:24:17.119Z,16.82
2017-07-03T00:25:17.225Z,16.84
2017-07-03T00:26:22.506Z,16.76
2017-07-03T00:27:16.510Z,16.62
2017-07-03T00:28:22.392Z,16.73
2017-07-03T00:29:22.678Z,16.74
2017-07-03T00:30:16.232Z,16.78
2017-07-03T00:31:12.379Z,16.61
2017-07-03T00:32:22.397Z,16.56
2017-07-03T00:33:17.503Z,16.55
2017-07-03T00:34:16.625Z,16.52
2017-07-03T00:35:22.197Z,16.49
2017-07-03T00:36:22.528Z,16.54
2017-07-03T00:37:17.733Z,16.49
2017-07-03T00:38:17.251Z,16.47
2017-07-03T00:39:17.550Z,16.36
2017-07-03T00:40:12.676Z,16.41
2017-07-03T00:41:21.962Z,16.34
2017-07-03T00:42:17.082Z,16.32
2017-07-03T00:43:17.372Z,16.38
2017-07-03T00:44:17.587Z,16.40
2017-07-03T00:45:19.089Z,16.40
2017-07-03T00:46:17.629Z,16.41
2017-07-03T00:47:17.102Z,16.45
2017-07-03T00:48:22.358Z,16.40
2017-07-03T00:49:22.627Z,16.47
2017-07-03T00:50:17.121Z,16.38
2017-07-03T00:51:17.337Z,16.41
2017-07-03T00:52:17.941Z,16.48
2017-07-03T00:53:17.360Z,16.41
2017-07-03T00:54:17.582Z,16.52
2017-07-03T00:55:21.834Z,16.56
2017-07-03T00:56:17.341Z,16.69
2017-07-03T00:57:23.356Z,16.65
2017-07-03T00:58:17.609Z,16.66
2017-07-03T00:59:21.883Z,16.44
2017-07-03T01:00:12.184Z,16.59
2017-07-03T01:01:22.469Z,16.47
2017-07-03T01:02:17.340Z,16.52
2017-07-03T01:03:17.473Z,16.61
2017-07-03T01:04:21.798Z,16.45
2017-07-03T01:05:17.329Z,16.43
2017-07-03T01:06:17.523Z,16.45
2017-07-03T01:07:16.598Z,16.60
2017-07-03T01:08:21.903Z,16.39
2017-07-03T01:09:22.295Z,16.47
2017-07-03T01:10:17.426Z,16.56
2017-07-03T01:11:16.491Z,16.54
2017-07-03T01:12:21.815Z,16.54
2017-07-03T01:13:11.807Z,16.47
2017-07-03T01:14:22.666Z,16.58
2017-07-03T01:15:21.995Z,16.58
2017-07-03T01:16:22.275Z,16.61
2017-07-03T01:17:22.722Z,16.63
2017-07-03T01:18:17.273Z,16.54
2017-07-03T01:19:17.443Z,16.51
2017-07-03T01:20:22.711Z,16.52
2017-07-03T01:21:22.103Z,16.53
2017-07-03T01:22:17.197Z,16.56
2017-07-03T01:23:17.400Z,16.58
2017-07-03T01:24:17.976Z,16.57
2017-07-03T01:25:22.259Z,16.55
2017-07-03T01:26:22.083Z,16.54
2017-07-03T01:27:22.491Z,16.53
2017-07-03T01:28:21.783Z,16.45
2017-07-03T01:29:16.864Z,16.39
2017-07-03T01:30:16.973Z,16.48
2017-07-03T01:31:22.285Z,16.52
2017-07-03T01:32:17.507Z,16.50
2017-07-03T01:33:21.773Z,16.51
2017-07-03T01:34:22.473Z,16.50
2017-07-03T01:35:22.752Z,16.47
2017-07-03T01:36:17.060Z,16.43
2017-07-03T01:37:22.336Z,16.45
2017-07-03T01:38:22.626Z,16.44
2017-07-03T01:39:21.943Z,16.40
2017-07-03T01:40:17.471Z,16.37
2017-07-03T01:41:22.913Z,16.44
2017-07-03T01:42:22.176Z,16.36
2017-07-03T01:43:17.196Z,16.29
2017-07-03T01:44:22.464Z,16.36
2017-07-03T01:45:21.773Z,16.38
2017-07-03T01:46:22.203Z,16.40
2017-07-03T01:47:22.503Z,16.35
2017-07-03T01:48:16.762Z,16.40
2017-07-03T01:49:17.209Z,16.29
2017-07-03T01:50:17.381Z,16.29
2017-07-03T01:51:22.836Z,16.30
2017-07-03T01:52:22.084Z,16.29
2017-07-03T01:53:17.417Z,16.35
2017-07-03T01:54:22.734Z,16.38
2017-07-03T01:55:17.261Z,16.30
2017-07-03T01:56:17.398Z,16.31
2017-07-03T01:57:17.390Z,16.32
2017-07-03T01:58:21.771Z,16.21
2017-07-03T01:59:22.074Z,16.17
2017-07-03T02:00:23.081Z,16.14
2017-07-03T02:01:22.373Z,16.25
2017-07-03T02:02:17.389Z,16.32
2017-07-03T02:03:17.380Z,16.35
2017-07-03T02:04:17.504Z,16.31
2017-07-03T02:05:21.870Z,16.32
2017-07-03T02:06:22.273Z,16.13
2017-07-03T02:07:17.411Z,16.15
2017-07-03T02:08:16.522Z,16.11
2017-07-03T02:09:16.529Z,16.20
2017-07-03T02:10:16.525Z,16.15
2017-07-03T02:11:17.384Z,16.24
2017-07-03T02:12:16.560Z,16.04
2017-07-03T02:13:17.398Z,15.96
2017-07-03T02:14:22.734Z,16.14
2017-07-03T02:15:16.990Z,16.25
2017-07-03T02:16:22.283Z,16.24
2017-07-03T02:17:22.713Z,16.25
2017-07-03T02:18:22.027Z,16.24
2017-07-03T02:19:23.152Z,16.24
2017-07-03T02:20:17.469Z,16.15
2017-07-03T02:21:22.782Z,16.09
2017-07-03T02:22:22.056Z,16.07
2017-07-03T02:23:21.835Z,16.15
2017-07-03T02:24:22.217Z,16.03
2017-07-03T02:25:17.320Z,15.97
2017-07-03T02:26:17.515Z,16.02
2017-07-03T02:27:17.090Z,16.07
2017-07-03T02:28:23.206Z,16.11
2017-07-03T02:29:12.803Z,16.11
2017-07-03T02:30:22.179Z,16.14
2017-07-03T02:31:17.340Z,16.22
2017-07-03T02:32:17.413Z,16.09
2017-07-03T02:33:21.782Z,16.14
2017-07-03T02:34:17.311Z,16.11
2017-07-03T02:35:17.507Z,16.06
2017-07-03T02:36:21.822Z,16.07
2017-07-03T02:37:17.368Z,16.07
2017-07-03T02:38:17.538Z,16.05
2017-07-03T02:39:21.835Z,16.00
2017-07-03T02:40:17.364Z,16.00
2017-07-03T02:41:17.499Z,16.03
2017-07-03T02:42:21.772Z,16.08
2017-07-03T02:43:16.886Z,16.05
2017-07-03T02:44:17.533Z,15.98
2017-07-03T02:45:21.812Z,16.02
2017-07-03T02:46:16.896Z,16.11
2017-07-03T02:47:17.076Z,16.07
2017-07-03T02:48:17.334Z,16.07
2017-07-03T02:49:17.504Z,16.18
2017-07-03T02:50:17.135Z,16.16
2017-07-03T02:51:17.346Z,16.08
2017-07-03T02:52:17.869Z,16.12
2017-07-03T02:53:17.331Z,16.18
2017-07-03T02:54:17.317Z,16.17
2017-07-03T02:55:22.612Z,16.12
2017-07-03T02:56:21.893Z,16.14
2017-07-03T02:57:13.216Z,16.11
2017-07-03T02:58:22.475Z,16.05
2017-07-03T02:59:16.528Z,16.04
2017-07-03T03:00:16.686Z,16.02
2017-07-03T03:01:16.909Z,16.02
2017-07-03T03:02:17.508Z,16.02
2017-07-03T03:03:16.517Z,16.07
2017-07-03T03:04:16.797Z,15.87
2017-07-03T03:05:16.813Z,15.91
2017-07-03T03:06:17.361Z,15.85
2017-07-03T03:07:22.624Z,15.94
2017-07-03T03:08:21.916Z,15.97
2017-07-03T03:09:17.446Z,15.98
2017-07-03T03:10:17.535Z,15.99
2017-07-03T03:11:16.811Z,15.96
2017-07-03T03:12:17.299Z,15.91
2017-07-03T03:13:22.562Z,15.97
2017-07-03T03:14:19.187Z,15.94
2017-07-03T03:15:23.297Z,15.97
2017-07-03T03:16:17.521Z,15.91
2017-07-03T03:17:21.904Z,15.93
2017-07-03T03:18:17.435Z,15.87
2017-07-03T03:19:19.530Z,15.89
2017-07-03T03:20:21.788Z,15.85
2017-07-03T03:21:22.062Z,15.90
2017-07-03T03:22:17.137Z,15.88
2017-07-03T03:23:17.709Z,15.92
2017-07-03T03:24:22.206Z,15.81
2017-07-03T03:25:22.495Z,15.86
2017-07-03T03:26:21.765Z,15.78
2017-07-03T03:27:22.052Z,15.73
2017-07-03T03:28:17.129Z,15.62
2017-07-03T03:29:22.467Z,15.57
2017-07-03T03:30:21.786Z,15.74
2017-07-03T03:31:22.163Z,15.66
2017-07-03T03:32:22.124Z,15.77
2017-07-03T03:33:17.649Z,15.78
2017-07-03T03:34:16.758Z,15.73
2017-07-03T03:35:17.300Z,15.76
2017-07-03T03:36:22.674Z,15.75
2017-07-03T03:37:17.173Z,15.85
2017-07-03T03:38:22.416Z,15.82
2017-07-03T03:39:22.707Z,15.65
2017-07-03T03:40:17.338Z,15.73
2017-07-03T03:41:21.744Z,15.77
2017-07-03T03:42:17.231Z,15.64
2017-07-03T03:43:22.542Z,15.63
2017-07-03T03:44:21.784Z,15.66
2017-07-03T03:45:16.966Z,15.62
2017-07-03T03:46:17.535Z,15.57
2017-07-03T03:47:21.657Z,15.64
2017-07-03T03:48:21.926Z,15.60
2017-07-03T03:49:22.013Z,15.61
2017-07-03T03:50:22.305Z,15.66
2017-07-03T03:51:22.723Z,15.72
2017-07-03T03:52:22.023Z,15.67
2017-07-03T03:53:22.335Z,15.64
2017-07-03T03:54:22.648Z,15.61
2017-07-03T03:55:16.823Z,15.66
2017-07-03T03:56:16.993Z,15.79
2017-07-03T03:57:22.336Z,15.80
2017-07-03T03:58:22.640Z,15.65
2017-07-03T03:59:16.836Z,15.61
2017-07-03T04:00:22.493Z,15.62
2017-07-03T04:01:17.453Z,15.67
2017-07-03T04:02:24.368Z,15.71
2017-07-03T04:03:22.684Z,15.60
2017-07-03T04:04:21.990Z,15.60
2017-07-03T04:05:18.034Z,15.60
2017-07-03T04:06:17.407Z,15.60
2017-07-03T04:07:17.412Z,15.70
2017-07-03T04:08:17.373Z,15.71
2017-07-03T04:09:17.305Z,15.71
2017-07-03T04:10:22.556Z,15.76
2017-07-03T04:11:21.886Z,15.89
2017-07-03T04:12:22.196Z,15.92
2017-07-03T04:13:22.486Z,15.86
2017-07-03T04:14:16.512Z,15.87
2017-07-03T04:15:17.081Z,15.83
2017-07-03T04:16:17.201Z,15.88
2017-07-03T04:17:22.655Z,15.94
2017-07-03T04:18:21.916Z,15.93
2017-07-03T04:19:17.414Z,15.91
2017-07-03T04:20:22.648Z,15.95
2017-07-03T04:21:22.016Z,15.90
2017-07-03T04:22:17.539Z,15.92
2017-07-03T04:23:16.528Z,15.96
2017-07-03T04:24:16.817Z,15.94
2017-07-03T04:25:11.507Z,15.90
2017-07-03T04:26:16.926Z,15.82
2017-07-03T04:27:17.245Z,15.84
2017-07-03T04:28:17.704Z,15.85
2017-07-03T04:29:21.959Z,15.91
2017-07-03T04:30:17.477Z,15.78
2017-07-03T04:31:23.438Z,15.80
2017-07-03T04:32:22.458Z,15.77
2017-07-03T04:33:22.535Z,15.84
2017-07-03T04:34:21.896Z,15.87
2017-07-03T04:35:17.402Z,15.80
2017-07-03T04:36:17.477Z,15.76
2017-07-03T04:37:16.510Z,15.86
2017-07-03T04:38:16.516Z,15.86
2017-07-03T04:39:16.527Z,15.88
2017-07-03T04:40:16.529Z,15.92
2017-07-03T04:41:22.787Z,15.87
2017-07-03T04:42:16.785Z,15.85
2017-07-03T04:43:22.115Z,15.94
2017-07-03T04:44:22.418Z,16.03
2017-07-03T04:45:17.553Z,15.94
2017-07-03T04:46:16.824Z,16.05
2017-07-03T04:47:22.078Z,16.11
2017-07-03T04:48:22.366Z,16.09
2017-07-03T04:49:22.736Z,15.97
2017-07-03T04:50:22.056Z,16.05
2017-07-03T04:51:22.437Z,16.10
2017-07-03T04:52:22.439Z,16.12
2017-07-03T04:53:17.972Z,15.87
2017-07-03T04:54:22.211Z,15.97
2017-07-03T04:55:22.457Z,15.89
2017-07-03T04:56:17.954Z,15.88
2017-07-03T04:57:22.219Z,15.92
2017-07-03T04:58:22.047Z,15.91
2017-07-03T04:59:22.337Z,15.96
2017-07-03T05:00:22.619Z,15.90
2017-07-03T05:01:12.676Z,15.86
2017-07-03T05:02:22.419Z,15.87
2017-07-03T05:03:22.680Z,15.91
2017-07-03T05:04:18.438Z,15.89
2017-07-03T05:05:22.679Z,15.94
2017-07-03T05:06:16.801Z,15.82
2017-07-03T05:07:16.946Z,15.72
2017-07-03T05:08:19.228Z,15.73
2017-07-03T05:09:17.473Z,15.75
2017-07-03T05:10:16.940Z,15.77
2017-07-03T05:11:22.969Z,15.78
2017-07-03T05:12:17.474Z,15.95
2017-07-03T05:13:14.073Z,16.01
2017-07-03T05:14:22.419Z,15.87
2017-07-03T05:15:22.747Z,15.93
2017-07-03T05:16:16.940Z,15.90
2017-07-03T05:17:16.978Z,15.92
2017-07-03T05:18:22.217Z,15.90
2017-07-03T05:19:22.466Z,15.93
2017-07-03T05:20:23.517Z,15.93
2017-07-03T05:21:21.912Z,16.02
2017-07-03T05:22:16.833Z,16.01
2017-07-03T05:23:16.996Z,15.96
2017-07-03T05:24:22.378Z,16.07
2017-07-03T05:25:22.649Z,15.92
2017-07-03T05:26:21.948Z,15.97
2017-07-03T05:27:22.225Z,15.87
2017-07-03T05:28:22.296Z,16.01
2017-07-03T05:29:22.588Z,16.06
2017-07-03T05:30:17.130Z,15.98
2017-07-03T05:31:17.213Z,16.03
2017-07-03T05:32:17.373Z,16.02
2017-07-03T05:33:17.672Z,16.02
2017-07-03T05:34:21.974Z,15.89
2017-07-03T05:35:22.338Z,15.95
2017-07-03T05:36:22.665Z,16.05
2017-07-03T05:37:22.218Z,16.13
2017-07-03T05:38:22.506Z,16.06
2017-07-03T05:39:21.806Z,16.06
2017-07-03T05:40:22.069Z,16.01
2017-07-03T05:41:17.567Z,16.04
2017-07-03T05:42:17.159Z,16.12
2017-07-03T05:43:17.240Z,16.10
2017-07-03T05:44:17.224Z,16.17
2017-07-03T05:45:17.236Z,16.21
2017-07-03T05:46:17.430Z,16.20
2017-07-03T05:47:16.526Z,16.10
2017-07-03T05:48:16.773Z,16.18
2017-07-03T05:49:17.142Z,16.17
2017-07-03T05:50:17.408Z,16.12
2017-07-03T05:51:22.787Z,16.07
2017-07-03T05:52:16.887Z,16.06
2017-07-03T05:53:22.248Z,16.11
2017-07-03T05:54:22.538Z,16.08
2017-07-03T05:55:21.806Z,16.17
2017-07-03T05:56:17.313Z,16.19
2017-07-03T05:57:22.574Z,16.20
2017-07-03T05:58:17.095Z,16.23
2017-07-03T05:59:17.243Z,16.32
2017-07-03T06:00:17.750Z,16.32
2017-07-03T06:01:16.778Z,16.34
2017-07-03T06:02:20.877Z,16.30
2017-07-03T06:03:12.066Z,16.29
2017-07-03T06:04:17.069Z,16.23
2017-07-03T06:05:23.295Z,16.23
2017-07-03T06:06:22.681Z,16.32
2017-07-03T06:07:21.987Z,16.34
2017-07-03T06:08:19.034Z,16.31
2017-07-03T06:09:22.305Z,16.33
2017-07-03T06:10:22.265Z,16.32
2017-07-03T06:11:17.059Z,16.31
2017-07-03T06:12:13.252Z,16.29
2017-07-03T06:13:16.786Z,16.21
2017-07-03T06:14:17.045Z,16.14
2017-07-03T06:15:17.618Z,16.23
2017-07-03T06:16:17.381Z,16.20
2017-07-03T06:17:17.776Z,16.27
2017-07-03T06:18:22.105Z,16.42
2017-07-03T06:19:17.638Z,16.53
2017-07-03T06:20:16.705Z,16.56
2017-07-03T06:21:16.919Z,16.51
2017-07-03T06:22:23.080Z,16.53
2017-07-03T06:23:22.470Z,16.57
2017-07-03T06:24:16.540Z,16.61
2017-07-03T06:25:22.480Z,16.65
2017-07-03T06:26:21.775Z,16.67
2017-07-03T06:27:22.088Z,16.60
2017-07-03T06:28:15.673Z,16.59
2017-07-03T06:29:21.928Z,16.59
2017-07-03T06:30:22.216Z,16.64
2017-07-03T06:31:12.529Z,16.67
2017-07-03T06:32:13.171Z,16.64
2017-07-03T06:33:22.496Z,16.64
2017-07-03T06:34:16.522Z,16.57
2017-07-03T06:35:16.510Z,16.62
2017-07-03T06:36:16.509Z,16.64
2017-07-03T06:37:17.490Z,16.57
2017-07-03T06:38:16.829Z,16.61
2017-07-03T06:39:16.832Z,16.62
2017-07-03T06:40:17.072Z,16.66
2017-07-03T06:41:22.736Z,16.70
2017-07-03T06:42:12.697Z,16.70
2017-07-03T06:43:22.036Z,16.75
2017-07-03T06:44:22.376Z,16.80
2017-07-03T06:45:22.788Z,16.82
2017-07-03T06:46:16.836Z,16.84
2017-07-03T06:47:17.774Z,16.88
2017-07-03T06:48:22.228Z,16.89
2017-07-03T06:49:12.606Z,16.91
2017-07-03T06:50:21.916Z,16.91
2017-07-03T06:51:22.333Z,16.89
2017-07-03T06:52:17.540Z,16.87
2017-07-03T06:53:21.879Z,16.85
2017-07-03T06:54:22.205Z,16.86
2017-07-03T06:55:17.346Z,16.89
2017-07-03T06:56:17.385Z,16.88
2017-07-03T06:57:22.611Z,16.88
2017-07-03T06:58:22.697Z,16.89
2017-07-03T06:59:17.297Z,16.89
2017-07-03T07:00:17.456Z,16.91
2017-07-03T07:01:16.520Z,16.94
2017-07-03T07:02:16.694Z,16.95
2017-07-03T07:03:17.272Z,16.95
2017-07-03T07:04:17.436Z,16.95
2017-07-03T07:05:22.708Z,16.96
2017-07-03T07:06:16.632Z,16.96
2017-07-03T07:07:22.248Z,16.89
2017-07-03T07:08:17.755Z,16.91
2017-07-03T07:09:16.960Z,16.91
2017-07-03T07:10:17.120Z,16.93
2017-07-03T07:11:22.369Z,16.97
2017-07-03T07:12:22.626Z,16.98
2017-07-03T07:13:21.879Z,16.96
2017-07-03T07:14:22.157Z,16.97
2017-07-03T07:15:17.648Z,16.96
2017-07-03T07:16:16.879Z,16.98
2017-07-03T07:17:22.271Z,16.98
2017-07-03T07:18:17.394Z,16.98
2017-07-03T07:19:21.767Z,16.95
2017-07-03T07:20:22.068Z,16.98
2017-07-03T07:21:16.893Z,17.02
2017-07-03T07:22:22.207Z,17.07
2017-07-03T07:23:22.491Z,17.11
2017-07-03T07:24:21.767Z,17.14
2017-07-03T07:25:22.068Z,17.19
2017-07-03T07:26:22.348Z,17.12
2017-07-03T07:27:17.821Z,17.12
2017-07-03T07:28:22.098Z,17.17
2017-07-03T07:29:17.273Z,17.20
2017-07-03T07:30:22.657Z,17.23
2017-07-03T07:31:17.578Z,17.24
2017-07-03T07:32:16.914Z,17.20
2017-07-03T07:33:22.247Z,17.18
2017-07-03T07:34:22.601Z,17.14
2017-07-03T07:35:17.135Z,17.16
2017-07-03T07:36:22.380Z,17.19
2017-07-03T07:37:22.670Z,17.20
2017-07-03T07:38:22.049Z,17.24
2017-07-03T07:39:20.209Z,17.28
2017-07-03T07:40:22.478Z,17.31
2017-07-03T07:41:18.644Z,17.33
2017-07-03T07:42:21.958Z,17.31
2017-07-03T07:43:22.256Z,17.30
2017-07-03T07:44:22.530Z,17.31
2017-07-03T07:45:22.581Z,17.24
2017-07-03T07:46:21.892Z,17.21
2017-07-03T07:47:22.181Z,17.20
2017-07-03T07:48:22.482Z,17.22
2017-07-03T07:49:17.526Z,17.20
2017-07-03T07:50:22.620Z,17.23
2017-07-03T07:51:17.436Z,17.25
2017-07-03T07:52:21.977Z,17.28
2017-07-03T07:53:12.533Z,17.27
2017-07-03T07:54:16.519Z,17.26
2017-07-03T07:55:16.681Z,17.28
2017-07-03T07:56:16.773Z,17.30
2017-07-03T07:57:16.948Z,17.32
2017-07-03T07:58:22.201Z,17.31
2017-07-03T07:59:17.305Z,17.32
2017-07-03T08:00:17.876Z,17.33
2017-07-03T08:01:22.211Z,17.33
2017-07-03T08:02:17.324Z,17.36
2017-07-03T08:03:22.692Z,17.37
2017-07-03T08:04:16.763Z,17.37
2017-07-03T08:05:16.937Z,17.37
2017-07-03T08:06:22.270Z,17.37
2017-07-03T08:07:22.499Z,17.39
2017-07-03T08:08:16.528Z,17.33
2017-07-03T08:09:21.902Z,17.37
2017-07-03T08:10:22.181Z,17.36
2017-07-03T08:11:22.492Z,17.39
2017-07-03T08:12:17.528Z,17.42
2017-07-03T08:13:21.752Z,17.48
2017-07-03T08:14:16.960Z,17.52
2017-07-03T08:15:16.955Z,17.54
2017-07-03T08:16:17.466Z,17.57
2017-07-03T08:17:22.900Z,17.61
2017-07-03T08:18:22.189Z,17.62
2017-07-03T08:19:22.501Z,17.62
2017-07-03T08:20:21.800Z,17.63
2017-07-03T08:21:22.138Z,17.63
2017-07-03T08:22:22.409Z,17.67
2017-07-03T08:23:17.927Z,17.68
2017-07-03T08:24:16.993Z,17.67
2017-07-03T08:25:17.194Z,17.64
2017-07-03T08:26:17.387Z,17.69
2017-07-03T08:27:22.257Z,17.73
2017-07-03T08:28:22.550Z,17.73
2017-07-03T08:29:16.530Z,17.76
2017-07-03T08:30:16.773Z,17.75
2017-07-03T08:31:17.236Z,17.76
2017-07-03T08:32:23.230Z,17.76
2017-07-03T08:33:17.543Z,17.72
2017-07-03T08:34:16.521Z,17.76
2017-07-03T08:35:17.526Z,17.78
2017-07-03T08:36:17.235Z,17.80
2017-07-03T08:37:17.518Z,17.80
2017-07-03T08:38:16.520Z,17.75
2017-07-03T08:39:16.648Z,17.73
2017-07-03T08:40:16.789Z,17.68
2017-07-03T08:41:17.352Z,17.71
2017-07-03T08:42:17.510Z,17.75
2017-07-03T08:43:12.702Z,17.78
2017-07-03T08:44:21.999Z,17.77
2017-07-03T08:45:22.301Z,17.77
2017-07-03T08:46:17.815Z,17.71
2017-07-03T08:47:22.058Z,17.77
2017-07-03T08:48:17.343Z,17.81
2017-07-03T08:49:17.347Z,17.82
2017-07-03T08:50:22.171Z,17.82
2017-07-03T08:51:22.599Z,17.81
2017-07-03T08:52:16.853Z,17.83
2017-07-03T08:53:16.840Z,17.88
2017-07-03T08:54:17.041Z,17.93
2017-07-03T08:55:17.366Z,17.92
2017-07-03T08:56:17.285Z,17.85
2017-07-03T08:57:17.380Z,17.89
2017-07-03T08:58:17.949Z,17.93
2017-07-03T08:59:17.379Z,17.91
2017-07-03T09:00:17.538Z,17.92
2017-07-03T09:01:21.807Z,17.90
2017-07-03T09:02:22.077Z,17.91
2017-07-03T09:03:22.362Z,17.89
2017-07-03T09:04:17.363Z,17.93
2017-07-03T09:05:17.511Z,17.96
2017-07-03T09:06:16.661Z,17.90
2017-07-03T09:07:16.855Z,17.89
2017-07-03T09:08:17.968Z,17.85
2017-07-03T09:09:16.871Z,17.82
2017-07-03T09:10:17.017Z,17.85
2017-07-03T09:11:17.637Z,17.86
2017-07-03T09:12:17.655Z,17.92
2017-07-03T09:13:17.828Z,17.95
2017-07-03T09:14:22.143Z,17.95
2017-07-03T09:15:17.281Z,17.99
2017-07-03T09:16:18.060Z,18.00
2017-07-03T09:17:17.277Z,18.02
2017-07-03T09:18:17.374Z,18.00
2017-07-03T09:19:18.640Z,18.01
2017-07-03T09:20:17.299Z,18.02
2017-07-03T09:21:17.815Z,18.03
2017-07-03T09:22:22.057Z,18.04
2017-07-03T09:23:22.047Z,18.07
2017-07-03T09:24:17.157Z,18.05
2017-07-03T09:25:22.497Z,18.06
2017-07-03T09:26:19.027Z,18.11
2017-07-03T09:27:22.299Z,18.16
2017-07-03T09:28:17.580Z,18.25
2017-07-03T09:29:21.857Z,18.25
2017-07-03T09:30:22.119Z,18.23
2017-07-03T09:31:22.399Z,18.21
2017-07-03T09:32:17.520Z,18.21
2017-07-03T09:33:16.650Z,18.22
2017-07-03T09:34:16.663Z,18.21
2017-07-03T09:35:21.988Z,18.29
2017-07-03T09:36:22.297Z,18.37
2017-07-03T09:37:18.396Z,18.41
2017-07-03T09:38:17.067Z,18.44
2017-07-03T09:39:17.065Z,18.47
2017-07-03T09:40:17.178Z,18.47
2017-07-03T09:41:17.331Z,18.45
2017-07-03T09:42:17.512Z,18.46
2017-07-03T09:43:21.870Z,18.46
2017-07-03T09:44:22.147Z,18.50
2017-07-03T09:45:22.439Z,18.48
2017-07-03T09:46:17.943Z,18.44
2017-07-03T09:47:22.199Z,18.44
2017-07-03T09:48:22.497Z,18.37
2017-07-03T09:49:16.538Z,18.36
2017-07-03T09:50:16.779Z,18.39
2017-07-03T09:51:22.035Z,18.43
2017-07-03T09:52:16.530Z,18.49
2017-07-03T09:53:16.773Z,18.56
2017-07-03T09:54:16.518Z,18.65
2017-07-03T09:55:13.130Z,18.69
2017-07-03T09:56:22.439Z,18.73
2017-07-03T09:57:22.739Z,18.77
2017-07-03T09:58:22.050Z,18.81
2017-07-03T09:59:17.305Z,18.82
2017-07-03T10:00:12.581Z,18.85
2017-07-03T10:01:17.405Z,18.89
2017-07-03T10:02:16.518Z,18.85
2017-07-03T10:03:16.678Z,18.85
2017-07-03T10:04:22.045Z,18.86
2017-07-03T10:05:22.317Z,18.84
2017-07-03T10:06:22.366Z,18.85
2017-07-03T10:07:22.661Z,18.84
2017-07-03T10:08:21.916Z,18.82
2017-07-03T10:09:17.121Z,18.84
2017-07-03T10:10:22.797Z,18.85
2017-07-03T10:15:22.239Z,18.93
2017-07-03T10:16:17.343Z,18.92
2017-07-03T10:17:17.636Z,18.91
2017-07-03T10:18:17.242Z,18.84
2017-07-03T10:19:17.420Z,18.81
2017-07-03T10:20:17.519Z,18.83
2017-07-03T10:21:16.731Z,18.87
2017-07-03T10:22:17.724Z,18.86
2017-07-03T10:23:16.907Z,18.89
2017-07-03T10:24:17.042Z,18.89
2017-07-03T10:25:12.507Z,18.90
2017-07-03T10:26:21.827Z,18.90
2017-07-03T10:27:16.896Z,18.89
2017-07-03T10:28:17.157Z,18.89
2017-07-03T10:29:17.691Z,18.89
2017-07-03T10:30:16.986Z,18.88
2017-07-03T10:31:17.171Z,18.85
2017-07-03T10:32:17.707Z,18.88
2017-07-03T10:33:16.920Z,18.95
2017-07-03T10:34:16.906Z,18.92
2017-07-03T10:35:17.112Z,18.95
2017-07-03T10:36:21.940Z,18.94
2017-07-03T10:37:17.950Z,18.87
2017-07-03T10:38:17.165Z,18.84
2017-07-03T10:39:22.436Z,18.82
2017-07-03T10:40:21.796Z,18.84
2017-07-03T10:41:22.079Z,18.88
2017-07-03T10:42:17.607Z,18.84
2017-07-03T10:43:21.909Z,18.85
2017-07-03T10:44:16.918Z,18.85
2017-07-03T10:45:17.170Z,18.82
2017-07-03T10:46:22.417Z,18.82
2017-07-03T10:47:17.492Z,18.82
2017-07-03T10:48:21.859Z,18.80
2017-07-03T10:49:16.919Z,18.80
2017-07-03T10:50:17.504Z,18.85
2017-07-03T10:51:21.778Z,18.86
2017-07-03T10:52:22.098Z,18.90
2017-07-03T10:53:22.406Z,18.92
2017-07-03T10:54:22.709Z,18.93
2017-07-03T10:55:18.197Z,18.94
2017-07-03T10:56:22.517Z,18.96
2017-07-03T10:57:21.733Z,18.98
2017-07-03T10:58:22.158Z,18.99
2017-07-03T10:59:22.407Z,19.00
2017-07-03T11:00:22.696Z,18.99
2017-07-03T11:01:12.545Z,19.02
2017-07-03T11:02:21.796Z,19.02
2017-07-03T11:03:22.086Z,19.03
2017-07-03T11:04:17.262Z,19.03
2017-07-03T11:05:10.163Z,19.06
2017-07-03T11:06:22.210Z,19.09
2017-07-03T11:07:22.495Z,19.08
2017-07-03T11:08:16.542Z,19.11
2017-07-03T11:09:22.718Z,19.14
2017-07-03T11:10:16.999Z,19.15
2017-07-03T11:11:22.227Z,19.17
2017-07-03T11:12:17.731Z,19.10
2017-07-03T11:13:16.749Z,19.08
2017-07-03T11:14:17.367Z,19.14
2017-07-03T11:15:23.876Z,19.19
2017-07-03T11:16:17.377Z,19.22
2017-07-03T11:17:22.766Z,19.24
2017-07-03T11:18:22.047Z,19.26
2017-07-03T11:19:17.525Z,19.29
2017-07-03T11:20:16.626Z,19.36
2017-07-03T11:22:17.458Z,19.44
2017-07-03T11:23:17.527Z,19.40
2017-07-03T11:24:21.879Z,19.42
2017-07-03T11:25:22.657Z,19.46
2017-07-03T11:26:22.078Z,19.50
2017-07-03T11:27:17.534Z,19.46
2017-07-03T11:28:16.531Z,19.40
2017-07-03T11:29:16.801Z,19.35
2017-07-03T11:30:17.039Z,19.31
2017-07-03T11:31:17.030Z,19.30
2017-07-03T11:32:21.815Z,19.32
2017-07-03T11:33:17.035Z,19.32
2017-07-03T11:34:17.247Z,19.32
2017-07-03T11:35:22.526Z,19.33
2017-07-03T11:36:21.776Z,19.34
2017-07-03T11:37:22.066Z,19.36
2017-07-03T11:38:22.545Z,19.40
2017-07-03T11:39:17.079Z,19.41
2017-07-03T11:40:22.036Z,19.44
2017-07-03T11:41:22.388Z,19.47
2017-07-03T11:42:17.414Z,19.52
2017-07-03T11:43:22.646Z,19.58
2017-07-03T11:44:17.187Z,19.56
2017-07-03T11:45:22.396Z,19.54
2017-07-03T11:46:17.417Z,19.54
2017-07-03T11:47:21.774Z,19.51
2017-07-03T11:48:17.262Z,19.52
2017-07-03T11:49:17.436Z,19.50
2017-07-03T11:50:17.922Z,19.56
2017-07-03T11:51:17.044Z,19.56
2017-07-03T11:52:22.409Z,19.55
2017-07-03T11:53:22.706Z,19.57
2017-07-03T11:54:22.005Z,19.64
2017-07-03T11:55:17.531Z,19.73
2017-07-03T11:56:16.821Z,19.81
2017-07-03T11:57:22.486Z,19.85
2017-07-03T11:58:21.845Z,19.91
2017-07-03T11:59:22.317Z,19.96
2017-07-03T12:00:22.618Z,19.94
2017-07-03T12:01:16.810Z,19.92
2017-07-03T12:02:22.066Z,19.93
2017-07-03T12:03:22.358Z,19.94
2017-07-03T12:04:17.511Z,19.96
2017-07-03T12:05:21.793Z,20.00
2017-07-03T12:06:22.046Z,19.98
2017-07-03T12:07:22.307Z,19.99
2017-07-03T12:08:22.649Z,19.98
2017-07-03T12:09:21.956Z,19.97
2017-07-03T12:10:17.472Z,19.99
2017-07-03T12:11:18.527Z,20.07
2017-07-03T12:12:17.107Z,20.08
2017-07-03T12:13:19.618Z,20.09
2017-07-03T12:14:12.726Z,20.12
2017-07-03T12:15:17.541Z,20.13
2017-07-03T12:16:17.110Z,20.14
2017-07-03T12:17:17.360Z,20.15
2017-07-03T12:18:21.768Z,20.11
2017-07-03T12:19:17.267Z,20.14
2017-07-03T12:20:22.518Z,20.14
2017-07-03T12:21:16.536Z,20.15
2017-07-03T12:22:21.835Z,20.14
2017-07-03T12:23:17.319Z,20.15
2017-07-03T12:24:22.580Z,20.18
2017-07-03T12:25:17.089Z,20.20
2017-07-03T12:26:22.376Z,20.21
2017-07-03T12:27:22.636Z,20.23
2017-07-03T12:28:22.230Z,20.27
2017-07-03T12:29:22.524Z,20.27
2017-07-03T12:30:17.046Z,20.24
2017-07-03T12:31:22.298Z,20.24
2017-07-03T12:32:17.369Z,20.20
2017-07-03T12:33:17.550Z,20.18
2017-07-03T12:34:17.085Z,20.16
2017-07-03T12:35:17.189Z,20.13
2017-07-03T12:36:17.352Z,20.17
2017-07-03T12:37:17.520Z,20.17
2017-07-03T12:38:22.287Z,20.18
2017-07-03T12:39:17.788Z,20.26
2017-07-03T12:40:16.843Z,20.30
2017-07-03T12:41:17.091Z,20.35
2017-07-03T12:42:18.090Z,20.45
2017-07-03T12:43:17.099Z,20.52
2017-07-03T12:44:21.776Z,20.52
2017-07-03T12:45:16.978Z,20.50
2017-07-03T12:46:22.307Z,20.47
2017-07-03T12:47:17.395Z,20.45
2017-07-03T12:48:21.775Z,20.45
2017-07-03T12:49:16.933Z,20.46
2017-07-03T12:50:17.090Z,20.50
2017-07-03T12:51:17.345Z,20.50
2017-07-03T12:52:17.542Z,20.46
2017-07-03T12:53:17.193Z,20.52
2017-07-03T12:54:16.803Z,20.55
2017-07-03T12:55:13.013Z,20.62
2017-07-03T12:56:22.376Z,20.65
2017-07-03T12:57:22.635Z,20.70